createdAt,value
2023-11-25T00:00:55.442Z,94554.00
2023-11-25T00:01:55.383Z,94548.00
2023-11-25T00:02:55.404Z,94550.00
2023-11-25T00:03:55.336Z,94550.00
2023-11-25T00:04:55.310Z,94550.00
2023-11-25T00:05:55.317Z,94548.00
2023-11-25T00:06:55.310Z,94545.00
2023-11-25T00:07:55.295Z,94539.00
2023-11-25T00:08:55.298Z,94538.00
2023-11-25T00:09:55.271Z,94537.00
2023-11-25T00:10:55.265Z,94537.00
2023-11-25T00:11:55.256Z,94535.00
2023-11-25T00:12:55.247Z,94533.00
2023-11-25T00:13:55.236Z,94534.00
2023-11-25T00:14:55.214Z,94533.00
2023-11-25T00:15:55.271Z,94532.00
2023-11-25T00:16:55.262Z,94533.00
2023-11-25T00:17:55.226Z,94532.00
2023-11-25T00:18:55.194Z,94531.00
2023-11-25T00:19:55.170Z,94527.00
2023-11-25T00:20:55.173Z,94531.00
2023-11-25T00:21:55.186Z,94530.00
2023-11-25T00:22:55.142Z,94525.00
2023-11-25T00:23:55.134Z,94526.00
2023-11-25T00:24:55.134Z,94525.00
2023-11-25T00:25:55.241Z,94528.00
2023-11-25T00:26:55.123Z,94527.00
2023-11-25T00:27:55.121Z,94528.00
2023-11-25T00:28:55.104Z,94526.00
2023-11-25T00:29:55.092Z,94524.00
2023-11-25T00:30:55.070Z,94523.00
2023-11-25T00:31:55.065Z,94519.00
2023-11-25T00:32:55.072Z,94521.00
2023-11-25T00:33:55.069Z,94523.00
2023-11-25T00:34:55.067Z,94523.00
2023-11-25T00:35:55.043Z,94519.00
2023-11-25T00:36:55.030Z,94519.00
2023-11-25T00:37:55.034Z,94517.00
2023-11-25T00:38:55.000Z,94516.00
2023-11-25T00:39:55.007Z,94515.00
2023-11-25T00:40:54.974Z,94512.00
2023-11-25T00:41:54.973Z,94513.00
2023-11-25T00:42:54.965Z,94510.00
2023-11-25T00:43:54.955Z,94507.00
2023-11-25T00:44:54.941Z,94511.00
2023-11-25T00:45:54.969Z,94513.00
2023-11-25T00:46:54.988Z,94514.00
2023-11-25T00:47:55.011Z,94519.00
2023-11-25T00:48:54.900Z,94522.00
2023-11-25T00:49:54.908Z,94520.00
2023-11-25T00:50:54.883Z,94519.00
2023-11-25T00:51:54.879Z,94521.00
2023-11-25T00:52:54.898Z,94522.00
2023-11-25T00:53:54.875Z,94523.00
2023-11-25T00:54:54.890Z,94525.00
2023-11-25T00:55:54.844Z,94525.00
2023-11-25T00:56:54.819Z,94524.00
2023-11-25T00:57:54.843Z,94525.00
2023-11-25T00:58:54.834Z,94522.00
2023-11-25T00:59:54.832Z,94520.00
2023-11-25T01:00:54.795Z,94519.00
2023-11-25T01:01:55.054Z,94522.00
2023-11-25T01:02:54.856Z,94524.00
2023-11-25T01:03:54.835Z,94530.00
2023-11-25T01:04:54.770Z,94536.00
2023-11-25T01:05:54.742Z,94540.00
2023-11-25T01:06:56.589Z,94542.00
2023-11-25T01:07:54.745Z,94544.00
2023-11-25T01:08:54.734Z,94541.00
2023-11-25T01:09:54.710Z,94538.00
2023-11-25T01:10:54.706Z,94536.00
2023-11-25T01:11:54.708Z,94538.00
2023-11-25T01:12:54.704Z,94537.00
2023-11-25T01:13:54.678Z,94540.00
2023-11-25T01:14:54.658Z,94541.00
2023-11-25T01:15:54.706Z,94545.00
2023-11-25T01:16:54.747Z,94548.00
2023-11-25T01:17:54.668Z,94546.00
2023-11-25T01:18:54.657Z,94545.00
2023-11-25T01:19:54.673Z,94539.00
2023-11-25T01:20:54.603Z,94536.00
2023-11-25T01:21:54.614Z,94543.00
2023-11-25T01:22:54.586Z,94539.00
2023-11-25T01:23:54.606Z,94533.00
2023-11-25T01:24:54.584Z,94527.00
2023-11-25T01:25:54.600Z,94523.00
2023-11-25T01:26:54.554Z,94522.00
2023-11-25T01:27:54.548Z,94529.00
2023-11-25T01:28:54.570Z,94534.00
2023-11-25T01:29:54.526Z,94535.00
2023-11-25T01:30:54.526Z,94532.00
2023-11-25T01:31:54.508Z,94531.00
2023-11-25T01:32:54.538Z,94527.00
2023-11-25T01:33:54.525Z,94523.00
2023-11-25T01:34:54.566Z,94524.00
2023-11-25T01:35:54.480Z,94524.00
2023-11-25T01:36:54.469Z,94519.00
2023-11-25T01:37:54.483Z,94513.00
2023-11-25T01:38:54.444Z,94513.00
2023-11-25T01:39:54.461Z,94510.00
2023-11-25T01:40:54.440Z,94507.00
2023-11-25T01:41:54.443Z,94501.00
2023-11-25T01:42:54.409Z,94498.00
2023-11-25T01:43:54.437Z,94496.00
2023-11-25T01:44:54.385Z,94493.00
2023-11-25T01:45:54.412Z,94493.00
2023-11-25T01:46:54.414Z,94491.00
2023-11-25T01:47:54.398Z,94491.00
2023-11-25T01:48:54.347Z,94492.00
2023-11-25T01:49:54.399Z,94491.00
2023-11-25T01:50:54.340Z,94491.00
2023-11-25T01:51:54.332Z,94490.00
2023-11-25T01:52:54.339Z,94492.00
2023-11-25T01:53:54.326Z,94494.00
2023-11-25T01:54:54.303Z,94492.00
2023-11-25T01:55:54.292Z,94492.00
2023-11-25T01:56:54.274Z,94498.00
2023-11-25T01:57:54.275Z,94509.00
2023-11-25T01:58:54.289Z,94519.00
2023-11-25T01:59:54.254Z,94511.00
2023-11-25T02:00:54.256Z,94514.00
2023-11-25T02:01:54.418Z,94524.00
2023-11-25T02:02:54.378Z,94530.00
2023-11-25T02:03:54.313Z,94525.00
2023-11-25T02:04:54.245Z,94529.00
2023-11-25T02:05:54.204Z,94522.00
2023-11-25T02:06:54.192Z,94521.00
2023-11-25T02:07:54.184Z,94524.00
2023-11-25T02:08:54.175Z,94519.00
2023-11-25T02:09:54.180Z,94511.00
2023-11-25T02:10:54.142Z,94511.00
2023-11-25T02:11:54.162Z,94520.00
2023-11-25T02:12:54.131Z,94525.00
2023-11-25T02:13:54.146Z,94518.00
2023-11-25T02:15:03.319Z,94511.00
2023-11-25T02:15:54.141Z,94513.00
2023-11-25T02:16:54.210Z,94512.00
2023-11-25T02:17:54.147Z,94513.00
2023-11-25T02:18:54.091Z,94517.00
2023-11-25T02:19:54.077Z,94509.00
2023-11-25T02:20:54.073Z,94508.00
2023-11-25T02:21:54.069Z,94510.00
2023-11-25T02:22:54.070Z,94510.00
2023-11-25T02:23:54.035Z,94512.00
2023-11-25T02:24:54.033Z,94509.00
2023-11-25T02:25:54.332Z,94511.00
2023-11-25T02:26:54.020Z,94511.00
2023-11-25T02:27:54.009Z,94515.00
2023-11-25T02:28:53.998Z,94515.00
2023-11-25T02:29:54.042Z,94510.00
2023-11-25T02:30:53.994Z,94510.00
2023-11-25T02:31:54.068Z,94513.00
2023-11-25T02:32:54.012Z,94509.00
2023-11-25T02:33:53.978Z,94499.00
2023-11-25T02:34:53.937Z,94494.00
2023-11-25T02:35:53.953Z,94494.00
2023-11-25T02:36:53.911Z,94494.00
2023-11-25T02:37:53.925Z,94498.00
2023-11-25T02:38:53.908Z,94501.00
2023-11-25T02:39:53.908Z,94497.00
2023-11-25T02:40:53.878Z,94497.00
2023-11-25T02:41:53.939Z,94493.00
2023-11-25T02:42:53.879Z,94491.00
2023-11-25T02:43:53.919Z,94493.00
2023-11-25T02:44:56.759Z,94491.00
2023-11-25T02:45:53.852Z,94503.00
2023-11-25T02:46:53.844Z,94507.00
2023-11-25T02:47:53.875Z,94498.00
2023-11-25T02:48:53.830Z,94500.00
2023-11-25T02:49:53.802Z,94509.00
2023-11-25T02:50:53.808Z,94518.00
2023-11-25T02:51:53.798Z,94533.00
2023-11-25T02:52:53.818Z,94502.00
2023-11-25T02:53:53.781Z,94516.00
2023-11-25T02:54:53.774Z,94500.00
2023-11-25T02:55:53.748Z,94521.00
2023-11-25T02:56:53.756Z,94535.00
2023-11-25T02:57:53.753Z,94550.00
2023-11-25T02:58:53.747Z,94553.00
2023-11-25T02:59:53.736Z,94557.00
2023-11-25T03:00:53.746Z,94563.00
2023-11-25T03:01:54.176Z,94572.00
2023-11-25T03:02:53.736Z,94575.00
2023-11-25T03:03:53.700Z,94573.00
2023-11-25T03:04:53.738Z,94587.00
2023-11-25T03:05:53.666Z,94594.00
2023-11-25T03:06:53.689Z,94603.00
2023-11-25T03:07:53.642Z,94602.00
2023-11-25T03:08:53.636Z,94603.00
2023-11-25T03:09:53.614Z,94599.00
2023-11-25T03:10:53.633Z,94597.00
2023-11-25T03:11:53.613Z,94602.00
2023-11-25T03:12:53.613Z,94597.00
2023-11-25T03:13:53.588Z,94589.00
2023-11-25T03:14:53.586Z,94583.00
2023-11-25T03:15:53.591Z,94596.00
2023-11-25T03:16:53.647Z,94602.00
2023-11-25T03:17:53.569Z,94599.00
2023-11-25T03:18:53.549Z,94610.00
2023-11-25T03:19:53.523Z,94623.00
2023-11-25T03:20:53.544Z,94629.00
2023-11-25T03:21:53.528Z,94631.00
2023-11-25T03:22:53.563Z,94629.00
2023-11-25T03:23:53.511Z,94623.00
2023-11-25T03:24:53.490Z,94631.00
2023-11-25T03:25:53.506Z,94641.00
2023-11-25T03:26:53.472Z,94649.00
2023-11-25T03:27:53.641Z,94650.00
2023-11-25T03:28:53.447Z,94653.00
2023-11-25T03:29:53.448Z,94661.00
2023-11-25T03:30:53.429Z,94662.00
2023-11-25T03:31:53.480Z,94662.00
2023-11-25T03:32:53.465Z,94655.00
2023-11-25T03:33:53.422Z,94653.00
2023-11-25T03:34:53.408Z,94655.00
2023-11-25T03:35:53.384Z,94665.00
2023-11-25T03:36:53.417Z,94676.00
2023-11-25T03:37:53.388Z,94689.00
2023-11-25T03:38:53.368Z,94695.00
2023-11-25T03:39:53.352Z,94696.00
2023-11-25T03:40:53.374Z,94696.00
2023-11-25T03:41:53.329Z,94695.00
2023-11-25T03:42:53.386Z,94694.00
2023-11-25T03:43:53.329Z,94692.00
2023-11-25T03:44:53.310Z,94699.00
2023-11-25T03:45:53.376Z,94697.00
2023-11-25T03:46:53.348Z,94702.00
2023-11-25T03:47:53.304Z,94712.00
2023-11-25T03:48:53.322Z,94721.00
2023-11-25T03:49:53.306Z,94724.00
2023-11-25T03:50:53.253Z,94734.00
2023-11-25T03:51:53.257Z,94741.00
2023-11-25T03:52:53.245Z,94756.00
2023-11-25T03:53:53.245Z,94758.00
2023-11-25T03:54:53.222Z,94758.00
2023-11-25T03:55:53.321Z,94759.00
2023-11-25T03:56:53.196Z,94763.00
2023-11-25T03:57:53.206Z,94770.00
2023-11-25T03:58:53.201Z,94774.00
2023-11-25T03:59:53.180Z,94779.00
2023-11-25T04:00:53.178Z,94787.00
2023-11-25T04:01:53.287Z,94786.00
2023-11-25T04:02:53.313Z,94787.00
2023-11-25T04:03:53.188Z,94792.00
2023-11-25T04:04:53.160Z,94799.00
2023-11-25T04:05:53.113Z,94803.00
2023-11-25T04:06:53.117Z,94802.00
2023-11-25T04:07:53.089Z,94793.00
2023-11-25T04:08:53.112Z,94786.00
2023-11-25T04:09:53.082Z,94779.00
2023-11-25T04:10:53.150Z,94783.00
2023-11-25T04:11:53.062Z,94784.00
2023-11-25T04:12:53.123Z,94784.00
2023-11-25T04:13:53.064Z,94787.00
2023-11-25T04:14:53.047Z,94790.00
2023-11-25T04:15:53.020Z,94796.00
2023-11-25T04:16:53.075Z,94796.00
2023-11-25T04:17:53.417Z,94799.00
2023-11-25T04:18:53.009Z,94805.00
2023-11-25T04:19:53.049Z,94805.00
2023-11-25T04:20:53.019Z,94802.00
2023-11-25T04:21:52.978Z,94803.00
2023-11-25T04:22:52.989Z,94811.00
2023-11-25T04:23:52.962Z,94824.00
2023-11-25T04:24:52.952Z,94831.00
2023-11-25T04:25:52.979Z,94826.00
2023-11-25T04:26:52.932Z,94823.00
2023-11-25T04:27:52.929Z,94824.00
2023-11-25T04:28:52.945Z,94825.00
2023-11-25T04:29:52.903Z,94828.00
2023-11-25T04:30:52.972Z,94827.00
2023-11-25T04:31:52.929Z,94830.00
2023-11-25T04:32:52.916Z,94819.00
2023-11-25T04:33:52.866Z,94827.00
2023-11-25T04:34:52.883Z,94839.00
2023-11-25T04:35:52.846Z,94835.00
2023-11-25T04:36:52.850Z,94850.00
2023-11-25T04:37:52.828Z,94859.00
2023-11-25T04:38:52.841Z,94869.00
2023-11-25T04:39:52.824Z,94859.00
2023-11-25T04:40:52.894Z,94855.00
2023-11-25T04:41:52.784Z,94858.00
2023-11-25T04:42:52.787Z,94879.00
2023-11-25T04:43:52.902Z,94883.00
2023-11-25T04:44:52.783Z,94896.00
2023-11-25T04:45:52.762Z,94867.00
2023-11-25T04:46:52.777Z,94882.00
2023-11-25T04:47:52.795Z,94878.00
2023-11-25T04:48:52.737Z,94876.00
2023-11-25T04:49:52.736Z,94875.00
2023-11-25T04:50:52.712Z,94875.00
2023-11-25T04:51:52.722Z,94875.00
2023-11-25T04:52:52.720Z,94883.00
2023-11-25T04:53:52.695Z,94885.00
2023-11-25T04:54:52.678Z,94880.00
2023-11-25T04:55:52.713Z,94882.00
2023-11-25T04:56:52.655Z,94882.00
2023-11-25T04:57:52.662Z,94880.00
2023-11-25T04:58:52.672Z,94889.00
2023-11-25T04:59:52.634Z,94893.00
2023-11-25T05:00:52.652Z,94882.00
2023-11-25T05:01:52.723Z,94883.00
2023-11-25T05:02:52.611Z,94880.00
2023-11-25T05:03:52.589Z,94882.00
2023-11-25T05:04:52.591Z,94887.00
2023-11-25T05:05:52.572Z,94884.00
2023-11-25T05:06:52.577Z,94880.00
2023-11-25T05:07:52.615Z,94872.00
2023-11-25T05:08:52.555Z,94878.00
2023-11-25T05:09:52.534Z,94884.00
2023-11-25T05:10:52.563Z,94883.00
2023-11-25T05:11:52.514Z,94879.00
2023-11-25T05:12:52.608Z,94884.00
2023-11-25T05:13:52.542Z,94884.00
2023-11-25T05:14:52.490Z,94886.00
2023-11-25T05:15:52.486Z,94890.00
2023-11-25T05:16:52.645Z,94887.00
2023-11-25T05:17:52.548Z,94884.00
2023-11-25T05:18:52.457Z,94890.00
2023-11-25T05:19:52.479Z,94898.00
2023-11-25T05:20:52.446Z,94904.00
2023-11-25T05:21:52.449Z,94906.00
2023-11-25T05:22:52.508Z,94906.00
2023-11-25T05:23:52.422Z,94911.00
2023-11-25T05:24:52.425Z,94917.00
2023-11-25T05:25:52.451Z,94918.00
2023-11-25T05:26:52.418Z,94917.00
2023-11-25T05:27:52.376Z,94914.00
2023-11-25T05:28:52.374Z,94923.00
2023-11-25T05:29:52.358Z,94923.00
2023-11-25T05:30:52.356Z,94931.00
2023-11-25T05:31:52.399Z,94933.00
2023-11-25T05:32:56.575Z,94936.00
2023-11-25T05:33:52.318Z,94933.00
2023-11-25T05:34:52.359Z,94933.00
2023-11-25T05:35:52.302Z,94934.00
2023-11-25T05:36:52.307Z,94933.00
2023-11-25T05:37:52.295Z,94936.00
2023-11-25T05:38:52.287Z,94940.00
2023-11-25T05:39:52.255Z,94944.00
2023-11-25T05:40:52.332Z,94946.00
2023-11-25T05:41:52.236Z,94948.00
2023-11-25T05:42:52.236Z,94952.00
2023-11-25T05:43:52.288Z,94953.00
2023-11-25T05:44:52.231Z,94954.00
2023-11-25T05:45:52.236Z,94950.00
2023-11-25T05:46:52.230Z,94936.00
2023-11-25T05:47:52.253Z,94938.00
2023-11-25T05:48:52.181Z,94945.00
2023-11-25T05:49:52.175Z,94949.00
2023-11-25T05:50:52.160Z,94947.00
2023-11-25T05:51:52.201Z,94949.00
2023-11-25T05:52:52.582Z,94948.00
2023-11-25T05:53:52.138Z,94951.00
2023-11-25T05:54:52.117Z,94953.00
2023-11-25T05:55:52.139Z,94956.00
2023-11-25T05:56:52.114Z,94960.00
2023-11-25T05:57:52.950Z,94961.00
2023-11-25T05:58:52.153Z,94964.00
2023-11-25T05:59:52.084Z,94961.00
2023-11-25T06:00:52.073Z,94963.00
2023-11-25T06:01:52.221Z,94968.00
2023-11-25T06:02:52.059Z,94975.00
2023-11-25T06:03:52.186Z,94977.00
2023-11-25T06:04:52.242Z,94982.00
2023-11-25T06:05:52.014Z,94986.00
2023-11-25T06:06:52.031Z,94986.00
2023-11-25T06:07:52.110Z,94985.00
2023-11-25T06:08:52.003Z,94993.00
2023-11-25T06:09:51.981Z,95000.00
2023-11-25T06:10:52.020Z,95005.00
2023-11-25T06:11:51.956Z,95004.00
2023-11-25T06:12:51.965Z,95002.00
2023-11-25T06:13:52.045Z,95003.00
2023-11-25T06:14:52.032Z,95002.00
2023-11-25T06:15:51.918Z,95003.00
2023-11-25T06:16:51.979Z,95008.00
2023-11-25T06:17:52.071Z,95008.00
2023-11-25T06:18:51.905Z,95014.00
2023-11-25T06:19:51.938Z,95016.00
2023-11-25T06:20:51.884Z,95016.00
2023-11-25T06:21:51.888Z,95018.00
2023-11-25T06:22:51.908Z,95020.00
2023-11-25T06:23:51.883Z,95020.00
2023-11-25T06:24:51.858Z,95020.00
2023-11-25T06:25:51.890Z,95022.00
2023-11-25T06:26:51.838Z,95022.00
2023-11-25T06:27:51.823Z,95023.00
2023-11-25T06:28:51.854Z,95022.00
2023-11-25T06:29:51.805Z,95019.00
2023-11-25T06:30:51.801Z,95018.00
2023-11-25T06:31:51.794Z,95020.00
2023-11-25T06:32:51.805Z,95024.00
2023-11-25T06:33:51.791Z,95023.00
2023-11-25T06:34:56.848Z,95024.00
2023-11-25T06:35:51.747Z,95023.00
2023-11-25T06:36:51.746Z,95026.00
2023-11-25T06:37:51.767Z,95031.00
2023-11-25T06:38:51.773Z,95031.00
2023-11-25T06:39:51.745Z,95028.00
2023-11-25T06:40:51.800Z,95030.00
2023-11-25T06:41:51.710Z,95031.00
2023-11-25T06:42:51.729Z,95029.00
2023-11-25T06:43:51.708Z,95027.00
2023-11-25T06:44:51.694Z,95029.00
2023-11-25T06:45:51.680Z,95032.00
2023-11-25T06:46:51.749Z,95027.00
2023-11-25T06:47:51.784Z,95032.00
2023-11-25T06:48:51.677Z,95039.00
2023-11-25T06:49:51.781Z,95045.00
2023-11-25T06:50:51.787Z,95048.00
2023-11-25T06:51:51.820Z,95047.00
2023-11-25T06:52:51.996Z,95047.00
2023-11-25T06:53:51.921Z,95050.00
2023-11-25T06:54:51.970Z,95052.00
2023-11-25T06:55:52.071Z,95050.00
2023-11-25T06:56:52.072Z,95052.00
2023-11-25T06:57:52.138Z,95055.00
2023-11-25T06:58:52.266Z,95058.00
2023-11-25T06:59:52.234Z,95060.00
2023-11-25T07:00:52.298Z,95069.00
2023-11-25T07:01:52.371Z,95065.00
2023-11-25T07:02:52.377Z,95069.00
2023-11-25T07:03:52.462Z,95070.00
2023-11-25T07:04:52.508Z,95073.00
2023-11-25T07:05:52.535Z,95072.00
2023-11-25T07:06:52.569Z,95063.00
2023-11-25T07:07:52.636Z,95059.00
2023-11-25T07:08:52.680Z,95059.00
2023-11-25T07:09:52.712Z,95057.00
2023-11-25T07:10:52.824Z,95057.00
2023-11-25T07:11:52.840Z,95058.00
2023-11-25T07:12:52.876Z,95061.00
2023-11-25T07:13:52.934Z,95066.00
2023-11-25T07:14:52.995Z,95069.00
2023-11-25T07:15:53.034Z,95071.00
2023-11-25T07:16:53.121Z,95070.00
2023-11-25T07:17:53.211Z,95072.00
2023-11-25T07:18:53.157Z,95070.00
2023-11-25T07:19:53.232Z,95067.00
2023-11-25T07:20:55.904Z,95070.00
2023-11-25T07:21:53.266Z,95073.00
2023-11-25T07:22:53.287Z,95073.00
2023-11-25T07:23:53.283Z,95072.00
2023-11-25T07:24:53.244Z,95071.00
2023-11-25T07:25:53.267Z,95068.00
2023-11-25T07:26:53.236Z,95069.00
2023-11-25T07:27:53.216Z,95071.00
2023-11-25T07:28:53.243Z,95067.00
2023-11-25T07:29:53.201Z,95070.00
2023-11-25T07:30:53.239Z,95071.00
2023-11-25T07:31:53.227Z,95073.00
2023-11-25T07:32:53.210Z,95075.00
2023-11-25T07:33:53.155Z,95078.00
2023-11-25T07:34:53.286Z,95075.00
2023-11-25T07:35:53.150Z,95073.00
2023-11-25T07:36:53.128Z,95074.00
2023-11-25T07:37:53.151Z,95077.00
2023-11-25T07:38:53.131Z,95078.00
2023-11-25T07:39:53.130Z,95076.00
2023-11-25T07:40:53.153Z,95075.00
2023-11-25T07:41:53.110Z,95075.00
2023-11-25T07:42:53.130Z,95071.00
2023-11-25T07:43:53.096Z,95071.00
2023-11-25T07:44:53.076Z,95074.00
2023-11-25T07:45:53.084Z,95076.00
2023-11-25T07:46:53.104Z,95077.00
2023-11-25T07:47:53.084Z,95079.00
2023-11-25T07:48:53.050Z,95078.00
2023-11-25T07:49:53.072Z,95078.00
2023-11-25T07:50:53.051Z,95081.00
2023-11-25T07:51:53.030Z,95080.00
2023-11-25T07:52:53.117Z,95083.00
2023-11-25T07:53:52.994Z,95080.00
2023-11-25T07:54:52.983Z,95080.00
2023-11-25T07:55:53.070Z,95080.00
2023-11-25T07:56:52.988Z,95080.00
2023-11-25T07:57:52.972Z,95081.00
2023-11-25T07:58:52.991Z,95081.00
2023-11-25T07:59:52.960Z,95081.00
2023-11-25T08:00:53.021Z,95078.00
2023-11-25T08:01:53.146Z,95079.00
2023-11-25T08:02:52.972Z,95079.00
2023-11-25T08:03:52.994Z,95082.00
2023-11-25T08:04:52.980Z,95084.00
2023-11-25T08:05:52.898Z,95083.00
2023-11-25T08:06:52.880Z,95082.00
2023-11-25T08:07:53.197Z,95082.00
2023-11-25T08:08:52.868Z,95083.00
2023-11-25T08:09:52.849Z,95083.00
2023-11-25T08:10:52.865Z,95082.00
2023-11-25T08:11:52.860Z,95083.00
2023-11-25T08:12:52.917Z,95081.00
2023-11-25T08:13:52.922Z,95076.00
2023-11-25T08:14:52.794Z,95079.00
2023-11-25T08:15:52.825Z,95083.00
2023-11-25T08:16:52.822Z,95081.00
2023-11-25T08:17:56.483Z,95086.00
2023-11-25T08:18:52.797Z,95087.00
2023-11-25T08:19:52.853Z,95080.00
2023-11-25T08:20:52.766Z,95079.00
2023-11-25T08:21:52.751Z,95078.00
2023-11-25T08:22:52.783Z,95073.00
2023-11-25T08:23:52.732Z,95071.00
2023-11-25T08:24:52.701Z,95071.00
2023-11-25T08:25:52.784Z,95072.00
2023-11-25T08:26:52.682Z,95073.00
2023-11-25T08:27:57.791Z,95074.00
2023-11-25T08:28:52.748Z,95075.00
2023-11-25T08:29:52.674Z,95078.00
2023-11-25T08:30:52.673Z,95085.00
2023-11-25T08:31:52.707Z,95089.00
2023-11-25T08:32:52.705Z,95092.00
2023-11-25T08:33:52.649Z,95094.00
2023-11-25T08:34:52.724Z,95093.00
2023-11-25T08:35:52.646Z,95093.00
2023-11-25T08:36:52.679Z,95093.00
2023-11-25T08:37:52.635Z,95095.00
2023-11-25T08:38:52.713Z,95095.00
2023-11-25T08:39:52.595Z,95096.00
2023-11-25T08:40:52.601Z,95103.00
2023-11-25T08:41:52.569Z,95106.00
2023-11-25T08:42:52.550Z,95108.00
2023-11-25T08:43:52.658Z,95110.00
2023-11-25T08:44:52.529Z,95110.00
2023-11-25T08:45:52.579Z,95112.00
2023-11-25T08:46:52.571Z,95116.00
2023-11-25T08:47:52.577Z,95115.00
2023-11-25T08:48:52.576Z,95116.00
2023-11-25T08:49:52.702Z,95116.00
2023-11-25T08:50:52.678Z,95115.00
2023-11-25T08:51:52.750Z,95115.00
2023-11-25T08:52:52.792Z,95120.00
2023-11-25T08:53:52.829Z,95122.00
2023-11-25T08:54:52.861Z,95125.00
2023-11-25T08:55:52.935Z,95125.00
2023-11-25T08:56:53.031Z,95124.00
2023-11-25T08:57:53.031Z,95124.00
2023-11-25T08:59:01.201Z,95124.00
2023-11-25T08:59:54.069Z,95123.00
2023-11-25T09:00:53.069Z,95123.00
2023-11-25T09:01:53.197Z,95125.00
2023-11-25T09:02:54.057Z,95126.00
2023-11-25T09:03:53.085Z,95126.00
2023-11-25T09:05:03.644Z,95126.00
2023-11-25T09:05:54.050Z,95127.00
2023-11-25T09:06:52.997Z,95127.00
2023-11-25T09:07:53.127Z,95127.00
2023-11-25T09:08:52.997Z,95124.00
2023-11-25T09:09:52.980Z,95119.00
2023-11-25T09:10:53.020Z,95119.00
2023-11-25T09:11:52.959Z,95120.00
2023-11-25T09:12:52.939Z,95123.00
2023-11-25T09:13:52.969Z,95120.00
2023-11-25T09:14:52.939Z,95120.00
2023-11-25T09:15:52.957Z,95117.00
2023-11-25T09:16:52.965Z,95111.00
2023-11-25T09:17:53.499Z,95111.00
2023-11-25T09:18:52.885Z,95110.00
2023-11-25T09:19:52.933Z,95111.00
2023-11-25T09:20:52.892Z,95114.00
2023-11-25T09:21:52.879Z,95112.00
2023-11-25T09:22:53.055Z,95114.00
2023-11-25T09:23:52.857Z,95111.00
2023-11-25T09:24:52.846Z,95109.00
2023-11-25T09:25:52.940Z,95106.00
2023-11-25T09:26:52.832Z,95106.00
2023-11-25T09:27:52.854Z,95108.00
2023-11-25T09:28:52.841Z,95106.00
2023-11-25T09:29:52.816Z,95111.00
2023-11-25T09:30:52.791Z,95111.00
2023-11-25T09:31:52.839Z,95112.00
2023-11-25T09:32:52.843Z,95117.00
2023-11-25T09:33:52.846Z,95116.00
2023-11-25T09:34:52.860Z,95114.00
2023-11-25T09:35:52.752Z,95113.00
2023-11-25T09:36:52.754Z,95113.00
2023-11-25T09:37:52.851Z,95117.00
2023-11-25T09:38:52.727Z,95120.00
2023-11-25T09:39:52.743Z,95121.00
2023-11-25T09:40:52.733Z,95126.00
2023-11-25T09:41:52.707Z,95123.00
2023-11-25T09:42:52.780Z,95126.00
2023-11-25T09:43:52.698Z,95129.00
2023-11-25T09:44:52.671Z,95128.00
2023-11-25T09:45:52.744Z,95129.00
2023-11-25T09:46:52.668Z,95130.00
2023-11-25T09:47:52.730Z,95127.00
2023-11-25T09:48:52.631Z,95124.00
2023-11-25T09:49:52.664Z,95127.00
2023-11-25T09:50:52.617Z,95130.00
2023-11-25T09:51:52.620Z,95129.00
2023-11-25T09:52:53.402Z,95127.00
2023-11-25T09:53:52.604Z,95124.00
2023-11-25T09:54:52.575Z,95123.00
2023-11-25T09:55:52.647Z,95120.00
2023-11-25T09:56:52.600Z,95121.00
2023-11-25T09:57:52.571Z,95118.00
2023-11-25T09:58:52.586Z,95122.00
2023-11-25T09:59:52.542Z,95120.00
2023-11-25T10:00:52.545Z,95118.00
2023-11-25T10:01:52.656Z,95118.00
2023-11-25T10:02:52.849Z,95117.00
2023-11-25T10:03:52.581Z,95114.00
2023-11-25T10:04:52.559Z,95112.00
2023-11-25T10:05:52.526Z,95110.00
2023-11-25T10:06:52.490Z,95110.00
2023-11-25T10:07:52.518Z,95110.00
2023-11-25T10:08:52.486Z,95108.00
2023-11-25T10:09:52.480Z,95111.00
2023-11-25T10:10:52.460Z,95110.00
2023-11-25T10:11:52.438Z,95110.00
2023-11-25T10:12:52.442Z,95110.00
2023-11-25T10:14:01.851Z,95111.00
2023-11-25T10:14:52.422Z,95109.00
2023-11-25T10:15:52.579Z,95110.00
2023-11-25T10:16:52.426Z,95112.00
2023-11-25T10:17:52.434Z,95110.00
2023-11-25T10:18:52.383Z,95110.00
2023-11-25T10:19:52.504Z,95112.00
2023-11-25T10:20:52.365Z,95115.00
2023-11-25T10:21:52.378Z,95113.00
2023-11-25T10:22:52.445Z,95115.00
2023-11-25T10:23:52.357Z,95113.00
2023-11-25T10:24:52.334Z,95112.00
2023-11-25T10:25:52.450Z,95111.00
2023-11-25T10:26:52.467Z,95109.00
2023-11-25T10:27:52.390Z,95108.00
2023-11-25T10:28:52.316Z,95106.00
2023-11-25T10:29:52.313Z,95103.00
2023-11-25T10:30:53.081Z,95105.00
2023-11-25T10:31:52.322Z,95110.00
2023-11-25T10:32:52.281Z,95112.00
2023-11-25T10:33:52.267Z,95112.00
2023-11-25T10:34:52.389Z,95120.00
2023-11-25T10:35:52.242Z,95121.00
2023-11-25T10:36:52.239Z,95122.00
2023-11-25T10:37:52.300Z,95123.00
2023-11-25T10:38:52.272Z,95125.00
2023-11-25T10:39:52.214Z,95123.00
2023-11-25T10:40:52.229Z,95121.00
2023-11-25T10:41:52.473Z,95125.00
2023-11-25T10:42:52.174Z,95118.00
2023-11-25T10:43:52.207Z,95120.00
2023-11-25T10:44:52.149Z,95122.00
2023-11-25T10:45:52.197Z,95122.00
2023-11-25T10:46:52.872Z,95117.00
2023-11-25T10:47:52.183Z,95115.00
2023-11-25T10:48:52.143Z,95116.00
2023-11-25T10:49:52.193Z,95111.00
2023-11-25T10:50:52.107Z,95104.00
2023-11-25T10:51:52.096Z,95099.00
2023-11-25T10:52:52.125Z,95101.00
2023-11-25T10:53:52.098Z,95100.00
2023-11-25T10:54:52.078Z,95097.00
2023-11-25T10:55:52.214Z,95094.00
2023-11-25T10:56:52.052Z,95091.00
2023-11-25T10:57:52.066Z,95094.00
2023-11-25T10:58:52.065Z,95097.00
2023-11-25T10:59:52.053Z,95099.00
2023-11-25T11:00:52.107Z,95104.00
2023-11-25T11:01:52.152Z,95104.00
2023-11-25T11:02:52.352Z,95106.00
2023-11-25T11:03:52.014Z,95106.00
2023-11-25T11:04:51.984Z,95106.00
2023-11-25T11:05:51.988Z,95104.00
2023-11-25T11:06:51.992Z,95104.00
2023-11-25T11:07:52.039Z,95103.00
2023-11-25T11:08:51.964Z,95107.00
2023-11-25T11:09:51.948Z,95105.00
2023-11-25T11:10:51.986Z,95108.00
2023-11-25T11:11:51.923Z,95106.00
2023-11-25T11:12:51.939Z,95106.00
2023-11-25T11:13:56.663Z,95106.00
2023-11-25T11:14:51.909Z,95110.00
2023-11-25T11:15:51.899Z,95112.00
2023-11-25T11:16:51.886Z,95112.00
2023-11-25T11:17:51.936Z,95113.00
2023-11-25T11:18:51.906Z,95102.00
2023-11-25T11:19:51.888Z,95102.00
2023-11-25T11:20:51.844Z,95105.00
2023-11-25T11:21:51.855Z,95111.00
2023-11-25T11:22:51.905Z,95116.00
2023-11-25T11:23:51.826Z,95120.00
2023-11-25T11:24:51.842Z,95119.00
2023-11-25T11:25:51.877Z,95110.00
2023-11-25T11:26:51.863Z,95114.00
2023-11-25T11:27:51.800Z,95117.00
2023-11-25T11:28:51.790Z,95113.00
2023-11-25T11:29:51.799Z,95118.00
2023-11-25T11:30:51.783Z,95121.00
2023-11-25T11:31:51.932Z,95124.00
2023-11-25T11:32:51.870Z,95121.00
2023-11-25T11:33:51.752Z,95116.00
2023-11-25T11:34:51.756Z,95111.00
2023-11-25T11:35:51.738Z,95110.00
2023-11-25T11:36:51.719Z,95110.00
2023-11-25T11:37:51.722Z,95111.00
2023-11-25T11:38:51.704Z,95109.00
2023-11-25T11:39:51.705Z,95109.00
2023-11-25T11:40:51.700Z,95107.00
2023-11-25T11:41:51.670Z,95105.00
2023-11-25T11:42:51.684Z,95103.00
2023-11-25T11:43:51.700Z,95105.00
2023-11-25T11:44:51.670Z,95108.00